Terminal Aerodrome Forecast
Issued by NWS

Home | Current Version | Previous Version | Text Only | Print | Product List | Glossary On
Versions: 1 2 3 4 5 6 7 8 9 10 11 12 13 14 15 16 17 18
000
FTUS45 KCYS 251918 AAB
TAFRWL
TAF AMD
KRWL 251918Z 2519/2618 35011G25KT 2SM -SN OVC015
      TEMPO 2519/2523 1/2SM SN OVC007
     FM260000 35015KT 4SM -SN OVC015
     FM260500 33011KT P6SM OVC010
     FM261200 24012KT P6SM OVC007=

USA.gov is the U.S. government's official web portal to all federal, state and local government web resources and services.